Time;durP1;ratioP1;P1;durP2;ratioP2;P2;SDS_P1;SDS_P2;PMS_P1;PMS_P2;Temp;Humidity;BMP_temperature;BMP_pressure;BME280_temperature;BME280_humidity;BME280_pressure;Samples;Min_cycle;Max_cycle;Signal;HPM_P1;HPM_P2
2023/09/20 00:00:07;;;;;;;4.57;1.35;;;17.40;99.90;;;;;;4952812;28;20158;-49
2023/09/20 00:02:33;;;;;;;3.35;1.42;;;17.40;99.90;;;;;;4951836;28;20422;-47
2023/09/20 00:05:00;;;;;;;3.50;1.58;;;17.40;99.90;;;;;;4952550;28;20023;-50
2023/09/20 00:07:26;;;;;;;1.80;1.20;;;17.40;99.90;;;;;;4952848;28;20030;-47
2023/09/20 00:09:52;;;;;;;5.60;1.38;;;17.50;99.90;;;;;;4952505;28;20128;-51
2023/09/20 00:12:18;;;;;;;1.67;1.30;;;17.40;99.90;;;;;;4952283;28;20028;-46
2023/09/20 00:14:43;;;;;;;2.50;1.30;;;17.50;99.90;;;;;;4952870;28;20027;-46
2023/09/20 00:17:09;;;;;;;1.50;1.40;;;17.50;99.90;;;;;;4952520;28;20107;-49
2023/09/20 00:19:38;;;;;;;2.47;1.23;;;17.50;99.90;;;;;;4952388;28;20035;-51
2023/09/20 00:22:05;;;;;;;2.03;1.38;;;17.50;99.90;;;;;;4952667;28;20023;-48
2023/09/20 00:24:31;;;;;;;3.72;1.63;;;17.60;99.90;;;;;;4952341;28;20027;-50
2023/09/20 00:26:57;;;;;;;2.00;1.42;;;17.60;99.90;;;;;;4952406;28;20545;-48
2023/09/20 00:29:24;;;;;;;4.85;1.50;;;17.60;99.90;;;;;;4951935;28;20027;-46
2023/09/20 00:31:50;;;;;;;1.10;1.00;;;17.70;99.90;;;;;;4951077;29;20023;-48
2023/09/20 00:34:17;;;;;;;3.70;1.48;;;17.70;99.90;;;;;;4951882;28;20517;-50
2023/09/20 00:36:44;;;;;;;7.00;1.63;;;17.70;99.90;;;;;;4952391;28;20106;-46
2023/09/20 00:39:10;;;;;;;3.33;1.33;;;17.70;99.90;;;;;;4952193;28;20031;-48
2023/09/20 00:41:36;;;;;;;5.15;1.65;;;17.70;99.90;;;;;;4952384;28;20035;-51
2023/09/20 00:44:02;;;;;;;3.22;1.55;;;17.70;99.90;;;;;;4950451;29;20031;-50
2023/09/20 00:46:29;;;;;;;2.58;1.90;;;17.70;99.90;;;;;;4917736;29;1024408;-49
2023/09/20 00:48:56;;;;;;;5.80;1.67;;;17.70;99.90;;;;;;4953357;28;20023;-48
2023/09/20 00:51:22;;;;;;;3.38;1.55;;;17.70;99.90;;;;;;4974363;23;20106;-51
2023/09/20 00:53:53;;;;;;;2.67;1.55;;;17.70;99.90;;;;;;4951078;29;20031;-47
2023/09/20 00:56:18;;;;;;;3.35;1.65;;;17.70;99.90;;;;;;4951939;29;20038;-51
2023/09/20 00:58:45;;;;;;;2.53;1.70;;;17.70;99.90;;;;;;4952942;28;20494;-49
2023/09/20 01:01:11;;;;;;;2.17;1.65;;;17.70;99.90;;;;;;4952975;28;20108;-49
2023/09/20 01:03:37;;;;;;;6.45;1.75;;;17.70;99.90;;;;;;4953273;29;20475;-45
2023/09/20 01:06:09;;;;;;;22.30;14.20;;;17.70;99.90;;;;;;4952057;29;20046;-51
2023/09/20 01:08:34;;;;;;;84.15;46.90;;;17.70;99.90;;;;;;4953500;29;20023;-49
2023/09/20 01:11:01;;;;;;;6.03;3.97;;;17.70;99.90;;;;;;4952830;29;20023;-50
2023/09/20 01:13:26;;;;;;;2.90;2.10;;;17.60;99.90;;;;;;4954919;28;20481;-48
2023/09/20 01:15:53;;;;;;;3.05;1.73;;;17.60;99.90;;;;;;4955077;29;20122;-50
2023/09/20 01:18:18;;;;;;;2.88;1.50;;;17.60;99.90;;;;;;4956420;29;20102;-51
2023/09/20 01:20:44;;;;;;;5.50;2.58;;;17.60;99.90;;;;;;4956795;28;20031;-53
2023/09/20 01:23:10;;;;;;;5.32;1.55;;;17.60;99.90;;;;;;4956107;28;20027;-54
2023/09/20 01:25:41;;;;;;;7.95;1.73;;;17.50;99.90;;;;;;4956108;29;20090;-52
2023/09/20 01:28:08;;;;;;;5.57;1.70;;;17.50;99.90;;;;;;4955851;29;20026;-53
2023/09/20 01:30:36;;;;;;;2.38;1.85;;;17.50;99.90;;;;;;4955961;28;20027;-50
2023/09/20 01:33:07;;;;;;;7.22;1.50;;;17.50;99.90;;;;;;4954478;28;20024;-49
2023/09/20 01:35:34;;;;;;;3.15;1.52;;;17.50;99.90;;;;;;4955982;29;20023;-51
2023/09/20 01:38:06;;;;;;;5.03;1.75;;;17.50;99.90;;;;;;4955787;28;20047;-51
2023/09/20 01:40:33;;;;;;;5.68;1.75;;;17.50;99.90;;;;;;4954546;29;20483;-51
2023/09/20 01:43:09;;;;;;;5.95;1.45;;;17.40;99.90;;;;;;4955437;29;20019;-49
2023/09/20 01:45:36;;;;;;;3.13;1.60;;;17.40;99.90;;;;;;4955731;28;20034;-53
2023/09/20 01:48:06;;;;;;;2.38;2.17;;;17.40;99.90;;;;;;4955611;28;20026;-54
2023/09/20 01:50:31;;;;;;;1.60;1.50;;;17.40;99.90;;;;;;4955582;28;20035;-49
2023/09/20 01:52:59;;;;;;;1.73;1.63;;;17.40;99.90;;;;;;4955326;28;20023;-50
2023/09/20 01:55:27;;;;;;;4.05;2.08;;;17.40;99.90;;;;;;4955594;28;20028;-50
2023/09/20 01:57:57;;;;;;;2.33;1.75;;;17.40;99.90;;;;;;4955765;28;20110;-46
2023/09/20 02:00:29;;;;;;;3.42;2.03;;;17.40;99.90;;;;;;4955580;28;20020;-49
2023/09/20 02:02:57;;;;;;;4.38;1.58;;;17.40;99.90;;;;;;4955066;28;20023;-52
2023/09/20 02:05:26;;;;;;;3.90;1.60;;;17.50;99.90;;;;;;4955463;28;20110;-50
2023/09/20 02:07:54;;;;;;;4.35;1.88;;;17.50;99.90;;;;;;4955230;29;20028;-50
2023/09/20 02:10:21;;;;;;;8.35;1.85;;;17.40;99.90;;;;;;4955167;28;20024;-51
2023/09/20 02:12:48;;;;;;;2.28;2.08;;;17.40;99.90;;;;;;4955059;29;20110;-52
2023/09/20 02:15:14;;;;;;;3.22;1.77;;;17.40;99.90;;;;;;4955151;29;20110;-50
2023/09/20 02:17:41;;;;;;;2.00;1.60;;;17.40;99.90;;;;;;4955234;28;20045;-49
2023/09/20 02:20:09;;;;;;;5.32;2.20;;;17.30;99.90;;;;;;4953768;29;20031;-51
2023/09/20 02:22:36;;;;;;;7.00;1.73;;;17.30;99.90;;;;;;4954762;28;20027;-51
2023/09/20 02:25:05;;;;;;;2.08;1.83;;;17.30;99.90;;;;;;4954262;28;20020;-50
2023/09/20 02:27:30;;;;;;;4.35;2.03;;;17.30;99.90;;;;;;4954689;29;20061;-49
2023/09/20 02:29:57;;;;;;;4.28;2.45;;;17.20;99.90;;;;;;4955079;29;20059;-49
2023/09/20 02:32:23;;;;;;;7.63;1.90;;;17.30;99.90;;;;;;4954396;29;20045;-49
2023/09/20 02:34:49;;;;;;;3.65;1.92;;;17.20;99.90;;;;;;4954824;29;20023;-50
2023/09/20 02:37:15;;;;;;;3.03;1.83;;;17.20;99.90;;;;;;4954755;28;20390;-50
2023/09/20 02:39:40;;;;;;;3.50;1.92;;;17.10;99.90;;;;;;4954739;29;20035;-52
2023/09/20 02:42:06;;;;;;;2.67;2.05;;;17.10;99.90;;;;;;4954552;29;20521;-53
2023/09/20 02:44:32;;;;;;;3.63;1.90;;;17.10;99.90;;;;;;4953104;29;20027;-53
2023/09/20 02:46:59;;;;;;;5.53;2.72;;;17.10;99.90;;;;;;4954829;29;20246;-49
2023/09/20 02:49:24;;;;;;;3.08;2.72;;;17.10;99.90;;;;;;4954580;28;20398;-53
2023/09/20 02:51:51;;;;;;;3.20;2.20;;;17.10;99.90;;;;;;4954310;29;20034;-50
2023/09/20 02:54:17;;;;;;;2.35;2.05;;;17.00;99.90;;;;;;4954199;28;20490;-49
2023/09/20 02:56:44;;;;;;;3.08;2.05;;;17.10;99.90;;;;;;4954388;29;20151;-50
2023/09/20 02:59:10;;;;;;;4.70;2.30;;;17.00;99.90;;;;;;4954549;29;20030;-49
2023/09/20 03:01:36;;;;;;;5.25;2.15;;;16.90;99.90;;;;;;4954300;28;20035;-52
2023/09/20 03:04:02;;;;;;;4.38;1.80;;;16.90;99.90;;;;;;4953888;29;20031;-51
2023/09/20 03:06:29;;;;;;;3.63;2.22;;;16.90;99.90;;;;;;4954269;29;20023;-52
2023/09/20 03:08:55;;;;;;;7.72;1.73;;;16.90;99.90;;;;;;4954175;29;20026;-51
2023/09/20 03:11:25;;;;;;;7.72;2.20;;;16.80;99.90;;;;;;4952843;29;20027;-49
2023/09/20 03:13:51;;;;;;;5.93;2.45;;;16.80;99.90;;;;;;4953790;29;20026;-53
2023/09/20 03:16:18;;;;;;;2.70;1.75;;;16.80;99.90;;;;;;4954034;29;20035;-51
2023/09/20 03:18:45;;;;;;;5.10;1.83;;;16.80;99.90;;;;;;4952808;29;20027;-49
2023/09/20 03:21:11;;;;;;;5.40;2.97;;;16.80;99.90;;;;;;4954052;28;20376;-51
2023/09/20 03:23:37;;;;;;;2.03;1.92;;;16.80;99.90;;;;;;4953553;28;20039;-49
2023/09/20 03:26:04;;;;;;;4.63;2.08;;;16.80;99.90;;;;;;4953949;28;20536;-51
2023/09/20 03:28:32;;;;;;;2.33;1.95;;;16.80;99.90;;;;;;4953647;29;20561;-50
2023/09/20 03:31:02;;;;;;;2.90;2.00;;;16.70;99.90;;;;;;4953617;28;20027;-50
2023/09/20 03:33:31;;;;;;;5.80;2.25;;;16.70;99.90;;;;;;4953414;29;20023;-52
2023/09/20 03:35:58;;;;;;;2.53;2.20;;;16.70;99.90;;;;;;4951579;28;20031;-51
2023/09/20 03:38:24;;;;;;;1.88;1.58;;;16.70;99.90;;;;;;4953761;28;20074;-50
2023/09/20 03:40:50;;;;;;;3.08;2.00;;;16.70;99.90;;;;;;4953887;29;20027;-49
2023/09/20 03:43:15;;;;;;;4.30;2.38;;;16.70;99.90;;;;;;4953804;28;20363;-51
2023/09/20 03:45:41;;;;;;;4.45;2.00;;;16.70;99.90;;;;;;4953638;28;20046;-50
2023/09/20 03:48:07;;;;;;;4.93;2.10;;;16.70;99.90;;;;;;4953579;28;20095;-49
2023/09/20 03:50:33;;;;;;;4.28;1.85;;;16.70;99.90;;;;;;4953412;29;20459;-50
2023/09/20 03:53:00;;;;;;;4.35;2.15;;;16.70;99.90;;;;;;4953495;28;20027;-50
2023/09/20 03:55:26;;;;;;;3.38;2.20;;;16.70;99.90;;;;;;4953792;29;20498;-50
2023/09/20 03:57:52;;;;;;;5.22;3.25;;;16.60;99.90;;;;;;4953599;28;20428;-50
2023/09/20 04:00:24;;;;;;;7.05;1.95;;;16.60;99.90;;;;;;4953480;28;20128;-51
2023/09/20 04:02:53;;;;;;;5.53;2.00;;;16.60;99.90;;;;;;4953212;29;20016;-50
2023/09/20 04:05:19;;;;;;;5.80;2.00;;;16.60;99.90;;;;;;4953373;28;20026;-52
2023/09/20 04:07:47;;;;;;;7.93;1.98;;;16.60;99.90;;;;;;4953396;29;20434;-50
2023/09/20 04:10:15;;;;;;;2.72;2.38;;;16.60;99.90;;;;;;4953372;28;20023;-52
2023/09/20 04:12:41;;;;;;;2.90;2.33;;;16.70;99.90;;;;;;4953091;29;20031;-50
2023/09/20 04:15:10;;;;;;;2.75;1.80;;;16.60;99.90;;;;;;4953270;28;20035;-49
2023/09/20 04:17:36;;;;;;;7.47;2.20;;;16.60;99.90;;;;;;4953588;28;20498;-51
2023/09/20 04:20:08;;;;;;;5.38;2.53;;;16.60;99.90;;;;;;4953251;28;20027;-51
2023/09/20 04:22:37;;;;;;;5.22;2.05;;;16.60;99.90;;;;;;4953005;28;20024;-49
2023/09/20 04:25:04;;;;;;;4.28;1.85;;;16.60;99.90;;;;;;4953203;28;20108;-51
2023/09/20 04:27:31;;;;;;;2.30;1.90;;;16.60;99.90;;;;;;4953021;28;20027;-51
2023/09/20 04:29:57;;;;;;;2.88;1.85;;;16.50;99.90;;;;;;4954061;28;20050;-54
2023/09/20 04:32:23;;;;;;;5.55;2.38;;;16.50;99.90;;;;;;4953056;29;20039;-51
2023/09/20 04:34:53;;;;;;;6.78;2.25;;;16.60;99.90;;;;;;4953123;29;20098;-50
2023/09/20 04:37:19;;;;;;;4.28;2.38;;;16.60;99.90;;;;;;4953292;28;20517;-50
2023/09/20 04:39:45;;;;;;;3.70;2.47;;;16.50;99.90;;;;;;4953222;29;20070;-52
2023/09/20 04:42:13;;;;;;;3.05;2.08;;;16.50;99.90;;;;;;4953041;29;20081;-56
2023/09/20 04:44:39;;;;;;;12.43;3.97;;;16.50;99.90;;;;;;4953033;28;20499;-52
2023/09/20 04:47:04;;;;;;;3.75;2.53;;;16.50;99.90;;;;;;4953527;28;20023;-54
2023/09/20 04:49:30;;;;;;;3.28;2.08;;;16.50;99.90;;;;;;4956923;29;20034;-52
2023/09/20 04:51:57;;;;;;;6.45;2.22;;;16.40;99.90;;;;;;4956483;28;20042;-52
2023/09/20 04:54:23;;;;;;;5.22;2.55;;;16.40;99.90;;;;;;4954968;29;20035;-53
2023/09/20 04:56:49;;;;;;;3.30;1.85;;;16.40;99.90;;;;;;4956977;29;20490;-54
2023/09/20 04:59:15;;;;;;;4.50;2.22;;;16.40;99.90;;;;;;4958331;29;20059;-49
2023/09/20 05:01:42;;;;;;;3.40;2.20;;;16.40;99.90;;;;;;4956415;29;20086;-50
2023/09/20 05:04:12;;;;;;;2.78;2.58;;;16.30;99.90;;;;;;4956280;29;20537;-50
2023/09/20 05:06:38;;;;;;;6.72;2.83;;;16.30;99.90;;;;;;4956420;28;20567;-50
2023/09/20 05:09:03;;;;;;;2.25;2.05;;;16.40;99.90;;;;;;4956289;29;20094;-50
2023/09/20 05:11:29;;;;;;;4.15;2.75;;;16.30;99.90;;;;;;4955033;29;20067;-50
2023/09/20 05:13:54;;;;;;;2.95;2.28;;;16.30;99.90;;;;;;4955925;29;20031;-49
2023/09/20 05:16:20;;;;;;;2.10;1.95;;;16.30;99.90;;;;;;4955462;29;20031;-52
2023/09/20 05:18:46;;;;;;;3.88;2.72;;;16.30;99.90;;;;;;4956195;29;20055;-49
2023/09/20 05:21:12;;;;;;;1.95;1.85;;;16.30;99.90;;;;;;4956848;29;20071;-50
2023/09/20 05:23:40;;;;;;;5.22;2.15;;;16.30;99.90;;;;;;4955813;29;20023;-51
2023/09/20 05:26:06;;;;;;;10.30;2.30;;;16.30;99.90;;;;;;4956198;29;20046;-53
2023/09/20 05:28:31;;;;;;;3.60;2.13;;;16.30;99.90;;;;;;4955932;29;20046;-53
2023/09/20 05:30:57;;;;;;;2.33;2.13;;;16.30;99.90;;;;;;4955977;29;20675;-50
2023/09/20 05:33:23;;;;;;;8.07;2.08;;;16.30;99.90;;;;;;4955678;28;20027;-53
2023/09/20 05:35:49;;;;;;;4.85;2.20;;;16.30;99.90;;;;;;4956023;28;20031;-52
2023/09/20 05:38:17;;;;;;;3.30;2.42;;;16.30;99.90;;;;;;4955939;28;20030;-53
2023/09/20 05:40:43;;;;;;;6.22;2.60;;;16.30;99.90;;;;;;4955839;28;20020;-54
2023/09/20 05:43:08;;;;;;;3.47;2.40;;;16.40;99.90;;;;;;4955193;28;20030;-50
2023/09/20 05:45:35;;;;;;;4.07;2.58;;;16.40;99.90;;;;;;4954478;29;20490;-54
2023/09/20 05:48:01;;;;;;;8.43;2.60;;;16.40;99.90;;;;;;4954548;28;20037;-49
2023/09/20 05:50:33;;;;;;;4.13;2.90;;;16.40;99.90;;;;;;4955361;29;20573;-52
2023/09/20 05:53:04;;;;;;;11.43;2.83;;;16.50;99.90;;;;;;4955146;28;20491;-53
2023/09/20 05:55:33;;;;;;;5.50;3.05;;;16.50;99.90;;;;;;4954310;29;20038;-53
2023/09/20 05:58:00;;;;;;;6.60;3.03;;;16.50;99.90;;;;;;4955590;28;20502;-52
2023/09/20 06:00:25;;;;;;;4.10;2.60;;;16.50;99.90;;;;;;4954389;28;20030;-51
2023/09/20 06:02:51;;;;;;;4.97;2.70;;;16.50;99.90;;;;;;4955002;28;20498;-52
2023/09/20 06:05:18;;;;;;;8.85;2.78;;;16.60;99.90;;;;;;4955440;29;20445;-52
2023/09/20 06:07:44;;;;;;;3.15;2.40;;;16.60;99.90;;;;;;4955564;29;20507;-51
2023/09/20 06:10:11;;;;;;;3.88;2.80;;;16.60;99.90;;;;;;4955295;28;20033;-52
2023/09/20 06:12:37;;;;;;;5.57;3.63;;;16.60;99.90;;;;;;4954915;28;20030;-51
2023/09/20 06:15:04;;;;;;;6.93;2.95;;;16.60;99.90;;;;;;4955039;29;20514;-49
2023/09/20 06:17:34;;;;;;;3.03;2.65;;;16.60;99.90;;;;;;4955060;29;20554;-49
2023/09/20 06:20:00;;;;;;;7.22;2.65;;;16.60;99.90;;;;;;4955189;29;20114;-49
2023/09/20 06:22:29;;;;;;;3.90;2.63;;;16.70;99.90;;;;;;4954459;29;20130;-52
2023/09/20 06:24:58;;;;;;;5.38;2.90;;;16.70;99.90;;;;;;4954911;28;20027;-49
2023/09/20 06:27:30;;;;;;;4.82;2.42;;;16.80;99.90;;;;;;4954677;28;20431;-50
2023/09/20 06:29:59;;;;;;;5.07;2.40;;;16.80;99.90;;;;;;4954852;28;20015;-52
2023/09/20 06:32:25;;;;;;;7.63;2.78;;;16.90;99.90;;;;;;4954430;28;20023;-50
2023/09/20 06:34:51;;;;;;;2.97;2.50;;;16.90;99.90;;;;;;4954670;28;20023;-55
2023/09/20 06:37:16;;;;;;;4.30;2.70;;;16.90;99.90;;;;;;4954827;28;20078;-52
2023/09/20 06:39:45;;;;;;;5.70;3.55;;;16.90;99.90;;;;;;4954772;28;20395;-52
2023/09/20 06:42:11;;;;;;;5.82;2.50;;;17.00;99.90;;;;;;4954591;28;20384;-54
2023/09/20 06:44:38;;;;;;;4.13;2.60;;;17.00;99.90;;;;;;4954296;29;20038;-52
2023/09/20 06:47:05;;;;;;;4.00;3.20;;;17.00;99.90;;;;;;4954592;28;20498;-50
2023/09/20 06:49:31;;;;;;;5.45;2.47;;;17.00;99.90;;;;;;4953463;29;20449;-55
2023/09/20 06:51:57;;;;;;;7.32;3.55;;;17.10;99.90;;;;;;4954789;28;20110;-51
2023/09/20 06:54:23;;;;;;;3.15;2.78;;;17.20;99.90;;;;;;4954183;29;20038;-49
2023/09/20 06:56:50;;;;;;;7.00;2.90;;;17.20;99.90;;;;;;4954549;28;20035;-50
2023/09/20 06:59:16;;;;;;;2.97;2.22;;;17.20;99.90;;;;;;4954476;29;20431;-50
2023/09/20 07:01:43;;;;;;;4.18;2.80;;;17.20;99.90;;;;;;4954030;29;20406;-51
2023/09/20 07:04:10;;;;;;;5.68;2.72;;;17.30;99.90;;;;;;4953762;28;20031;-50
2023/09/20 07:06:37;;;;;;;5.00;3.03;;;17.30;99.90;;;;;;4954068;29;20023;-53
2023/09/20 07:09:05;;;;;;;5.65;2.42;;;17.40;99.90;;;;;;4954085;29;20032;-50
2023/09/20 07:11:31;;;;;;;6.90;2.78;;;17.50;99.90;;;;;;4953995;28;20030;-51
2023/09/20 07:13:59;;;;;;;3.35;2.53;;;17.50;99.90;;;;;;4953844;28;20227;-49
2023/09/20 07:16:25;;;;;;;4.53;2.90;;;17.50;99.90;;;;;;4954340;28;20483;-50
2023/09/20 07:18:51;;;;;;;4.43;2.90;;;17.50;99.90;;;;;;4954170;28;20038;-50
2023/09/20 07:21:16;;;;;;;3.60;2.45;;;17.50;99.90;;;;;;4954143;28;20030;-56
2023/09/20 07:23:42;;;;;;;6.95;2.90;;;17.60;99.90;;;;;;4953553;29;20042;-52
2023/09/20 07:26:08;;;;;;;5.93;2.50;;;17.60;99.90;;;;;;4953817;29;20106;-51
2023/09/20 07:28:36;;;;;;;5.97;3.13;;;17.70;99.90;;;;;;4953688;29;20023;-54
2023/09/20 07:31:03;;;;;;;4.45;2.70;;;17.70;99.90;;;;;;4953819;29;20030;-52
2023/09/20 07:33:31;;;;;;;4.95;2.47;;;17.70;99.90;;;;;;4953539;29;20035;-51
2023/09/20 07:36:05;;;;;;;4.80;2.50;;;17.70;99.90;;;;;;4952633;29;20027;-50
2023/09/20 07:38:32;;;;;;;6.47;3.87;;;17.70;99.90;;;;;;4953984;29;20027;-50
2023/09/20 07:41:09;;;;;;;9.30;2.80;;;17.80;99.90;;;;;;4953692;28;20406;-48
2023/09/20 07:43:38;;;;;;;9.77;3.15;;;18.00;99.90;;;;;;4953301;28;20030;-51
2023/09/20 07:46:06;;;;;;;4.82;2.53;;;18.20;99.90;;;;;;4953579;29;20031;-50
2023/09/20 07:48:33;;;;;;;5.07;2.45;;;18.50;99.90;;;;;;4953716;29;20106;-50
2023/09/20 07:50:59;;;;;;;6.68;2.80;;;18.80;99.90;;;;;;4953508;28;20141;-48
2023/09/20 07:53:26;;;;;;;3.70;2.53;;;19.00;99.90;;;;;;4953598;29;20102;-55
2023/09/20 07:56:03;;;;;;;5.45;2.58;;;19.20;99.90;;;;;;4953615;29;20031;-49
2023/09/20 07:58:30;;;;;;;12.00;3.40;;;19.30;99.90;;;;;;4953634;29;20023;-49
2023/09/20 08:00:56;;;;;;;9.00;2.92;;;19.50;99.90;;;;;;4953845;28;20102;-52
2023/09/20 08:03:26;;;;;;;9.02;2.28;;;19.50;99.90;;;;;;4953194;29;20102;-52
2023/09/20 08:05:53;;;;;;;3.13;2.10;;;19.60;99.90;;;;;;4953536;28;20418;-50
2023/09/20 08:08:19;;;;;;;7.88;2.70;;;19.80;99.90;;;;;;4953542;29;20030;-50
2023/09/20 08:10:45;;;;;;;4.78;2.15;;;19.90;99.90;;;;;;4953618;29;20231;-54
2023/09/20 08:13:12;;;;;;;5.50;2.30;;;19.90;99.90;;;;;;4952936;28;20034;-51
2023/09/20 08:15:48;;;;;;;5.57;2.50;;;19.90;99.90;;;;;;4953511;28;20086;-51
2023/09/20 08:20:59;;;;;;;2.78;2.22;;;19.80;99.90;;;;;;4953392;29;20033;-50
2023/09/20 08:59:52;;;;;;;3.53;2.05;;;20.70;99.90;;;;;;4956983;29;20517;-49
2023/09/20 09:02:18;;;;;;;1.90;1.60;;;21.00;99.90;;;;;;4956911;29;20465;-55
2023/09/20 09:04:49;;;;;;;3.83;1.63;;;21.40;99.90;;;;;;4956418;28;20118;-52
2023/09/20 09:07:17;;;;;;;3.72;2.03;;;22.10;99.90;;;;;;4956720;28;20450;-54
2023/09/20 09:09:43;;;;;;;4.85;1.60;;;23.00;99.90;;;;;;4957275;28;20478;-50
2023/09/20 09:12:12;;;;;;;6.43;1.88;;;24.30;99.90;;;;;;4956972;28;20110;-49
2023/09/20 09:14:39;;;;;;;6.00;1.38;;;25.30;99.90;;;;;;4957413;28;20427;-50
2023/09/20 09:17:06;;;;;;;2.70;1.48;;;25.40;99.90;;;;;;4955447;29;20078;-51
2023/09/20 09:19:33;;;;;;;2.88;1.65;;;25.40;99.90;;;;;;4956958;29;20079;-51
2023/09/20 09:21:59;;;;;;;4.35;1.50;;;25.50;99.90;;;;;;4957405;29;20027;-50
2023/09/20 09:24:27;;;;;;;7.25;1.92;;;26.10;99.90;;;;;;4957412;29;20042;-50
2023/09/20 09:27:06;;;;;;;2.35;1.20;;;26.80;99.00;;;;;;4957241;28;20026;-51
2023/09/20 09:29:32;;;;;;;3.78;1.40;;;26.80;97.90;;;;;;4956421;28;20034;-51
2023/09/20 09:32:00;;;;;;;4.93;1.73;;;26.50;98.20;;;;;;4956385;29;20024;-50
2023/09/20 09:34:26;;;;;;;2.30;1.30;;;26.00;98.40;;;;;;4955931;28;20448;-49
2023/09/20 09:36:53;;;;;;;5.95;1.52;;;25.70;99.30;;;;;;4956087;28;20125;-49
2023/09/20 09:39:19;;;;;;;1.67;1.20;;;25.10;99.20;;;;;;4956097;29;20082;-51
2023/09/20 09:41:45;;;;;;;4.43;1.30;;;24.60;99.90;;;;;;4955840;29;20458;-50
2023/09/20 09:44:11;;;;;;;1.92;1.40;;;24.50;99.90;;;;;;4954144;29;20023;-49
2023/09/20 09:46:41;;;;;;;2.22;1.50;;;24.60;99.90;;;;;;4955936;29;20036;-51
2023/09/20 09:49:10;;;;;;;6.40;2.42;;;24.70;99.90;;;;;;4954596;29;20086;-49
2023/09/20 09:51:45;;;;;;;2.97;1.30;;;24.90;99.90;;;;;;4955626;28;20466;-54
2023/09/20 09:54:12;;;;;;;6.50;1.42;;;24.90;99.90;;;;;;4956000;28;20031;-49
2023/09/20 09:56:38;;;;;;;3.72;1.40;;;25.00;99.90;;;;;;4955831;29;20032;-55
2023/09/20 09:59:05;;;;;;;3.70;1.30;;;24.90;99.90;;;;;;4955169;28;20494;-49
2023/09/20 10:01:36;;;;;;;1.95;1.30;;;25.00;99.90;;;;;;4955406;28;20465;-49
2023/09/20 10:04:10;;;;;;;6.63;1.70;;;25.10;99.90;;;;;;4954782;29;20070;-49
2023/09/20 10:06:43;;;;;;;5.63;1.60;;;25.20;99.90;;;;;;4955653;28;20125;-48
2023/09/20 10:09:10;;;;;;;1.73;1.10;;;25.20;99.80;;;;;;4955267;29;20035;-48
2023/09/20 10:11:38;;;;;;;3.75;2.13;;;25.50;99.90;;;;;;4955642;29;20114;-49
2023/09/20 10:14:07;;;;;;;9.23;4.63;;;25.60;99.90;;;;;;4955020;29;20635;-49
2023/09/20 10:16:35;;;;;;;4.25;1.35;;;25.70;99.30;;;;;;4955419;28;20455;-53
2023/09/20 10:19:01;;;;;;;4.38;1.67;;;25.50;99.40;;;;;;4955624;28;20031;-54
2023/09/20 10:21:30;;;;;;;2.38;1.33;;;25.40;99.50;;;;;;4955535;29;20042;-49
2023/09/20 10:24:02;;;;;;;5.45;1.40;;;25.30;99.60;;;;;;4954846;29;20031;-50
2023/09/20 10:26:33;;;;;;;1.90;1.33;;;25.00;99.70;;;;;;4955176;28;20204;-52
2023/09/20 10:29:21;;;;;;;3.05;1.30;;;24.90;99.90;;;;;;4955244;28;20128;-49
2023/09/20 10:31:47;;;;;;;2.33;1.52;;;24.80;99.90;;;;;;4954956;28;20047;-49
2023/09/20 10:34:13;;;;;;;4.00;1.60;;;24.80;99.90;;;;;;4954674;29;20442;-55
2023/09/20 10:36:51;;;;;;;4.38;1.27;;;24.80;99.90;;;;;;4955034;29;20047;-49
2023/09/20 10:39:17;;;;;;;3.42;1.50;;;24.70;99.90;;;;;;4954986;28;20031;-52
2023/09/20 10:41:43;;;;;;;3.45;1.10;;;24.80;99.90;;;;;;4954787;29;20106;-48
2023/09/20 10:44:26;;;;;;;2.10;1.30;;;24.90;99.90;;;;;;4954267;28;20110;-53
2023/09/20 10:46:53;;;;;;;2.85;1.10;;;25.00;99.90;;;;;;4954755;28;20455;-48
2023/09/20 10:49:47;;;;;;;2.45;1.27;;;24.90;99.90;;;;;;4955011;29;20070;-51
2023/09/20 10:52:32;;;;;;;3.25;1.05;;;24.90;99.80;;;;;;4954435;29;20031;-49
2023/09/20 10:55:22;;;;;;;8.48;1.10;;;24.60;99.90;;;;;;4954575;29;20498;-48
2023/09/20 10:57:49;;;;;;;3.15;1.40;;;24.30;99.90;;;;;;4954467;29;20074;-50
2023/09/20 11:00:24;;;;;;;1.33;1.10;;;24.00;99.90;;;;;;4953183;29;20122;-52
2023/09/20 11:02:52;;;;;;;2.20;1.13;;;23.80;99.90;;;;;;4954280;29;20030;-51
2023/09/20 11:05:18;;;;;;;3.42;1.27;;;23.60;99.90;;;;;;4952857;29;20465;-52
2023/09/20 11:07:44;;;;;;;5.18;1.58;;;23.50;99.90;;;;;;4954522;28;20470;-56
2023/09/20 11:10:11;;;;;;;3.10;1.30;;;23.50;99.90;;;;;;4954498;28;20031;-52
2023/09/20 11:12:36;;;;;;;1.70;1.20;;;23.40;99.90;;;;;;4954432;28;20031;-52
2023/09/20 11:15:05;;;;;;;1.95;1.25;;;23.40;99.90;;;;;;4953790;29;20025;-51
2023/09/20 11:17:31;;;;;;;5.22;1.50;;;23.40;99.90;;;;;;4954478;28;20033;-51
2023/09/20 11:19:58;;;;;;;2.97;1.25;;;23.50;99.90;;;;;;4954261;29;20106;-53
2023/09/20 11:22:23;;;;;;;1.77;1.20;;;23.50;99.90;;;;;;4953777;28;20039;-51
2023/09/20 11:24:51;;;;;;;3.78;1.40;;;23.70;99.90;;;;;;4954092;28;20391;-53
2023/09/20 11:27:17;;;;;;;2.83;1.40;;;23.80;99.90;;;;;;4953754;28;20451;-51
2023/09/20 11:29:48;;;;;;;1.85;1.00;;;24.00;99.90;;;;;;4953427;29;20070;-54
2023/09/20 11:32:15;;;;;;;2.88;1.45;;;24.00;99.90;;;;;;4953575;29;20023;-52
2023/09/20 11:34:50;;;;;;;1.40;1.10;;;24.00;99.90;;;;;;4953751;29;20026;-54
2023/09/20 11:37:18;;;;;;;4.57;1.52;;;24.00;99.90;;;;;;4953831;29;20402;-53
2023/09/20 11:39:48;;;;;;;6.25;4.55;;;24.00;99.90;;;;;;4954015;29;20050;-53
2023/09/20 11:42:46;;;;;;;2.90;1.70;;;24.00;99.90;;;;;;4953788;28;20027;-53
2023/09/20 11:45:12;;;;;;;2.05;1.52;;;23.90;99.90;;;;;;4920320;29;20039;-49
2023/09/20 11:47:42;;;;;;;4.72;1.38;;;23.90;99.90;;;;;;4953704;29;20023;-54
2023/09/20 11:50:15;;;;;;;5.00;1.23;;;23.80;99.90;;;;;;4953498;28;20050;-52
2023/09/20 11:52:47;;;;;;;3.38;1.40;;;23.90;99.90;;;;;;4953181;28;20042;-55
2023/09/20 11:55:13;;;;;;;6.60;2.33;;;23.80;99.90;;;;;;4952255;29;20119;-54
2023/09/20 11:57:45;;;;;;;2.20;1.05;;;23.80;99.90;;;;;;4952915;28;20106;-50
2023/09/20 12:00:18;;;;;;;2.42;1.58;;;23.60;99.90;;;;;;4953447;28;20034;-52
2023/09/20 12:02:45;;;;;;;3.67;1.10;;;23.70;99.90;;;;;;4953309;29;20035;-53
2023/09/20 12:05:11;;;;;;;4.60;2.05;;;23.70;99.90;;;;;;4952215;29;20037;-49
2023/09/20 12:07:36;;;;;;;4.47;1.60;;;23.70;99.90;;;;;;4953295;28;20452;-55
2023/09/20 12:10:02;;;;;;;5.18;2.38;;;23.70;99.90;;;;;;4953209;29;20055;-52
2023/09/20 12:12:31;;;;;;;3.05;1.45;;;23.70;99.90;;;;;;4953280;29;20265;-55
2023/09/20 12:14:56;;;;;;;3.88;1.30;;;23.70;99.90;;;;;;4953285;29;20390;-51
2023/09/20 12:17:22;;;;;;;5.78;1.30;;;23.60;99.90;;;;;;4953367;29;20036;-51
2023/09/20 12:19:47;;;;;;;2.25;1.40;;;23.60;99.90;;;;;;4953518;28;20034;-52
2023/09/20 12:22:13;;;;;;;2.30;1.30;;;23.60;99.90;;;;;;4953735;29;20035;-51
2023/09/20 12:24:39;;;;;;;3.95;1.33;;;23.60;99.90;;;;;;4953229;29;20027;-53
2023/09/20 12:27:05;;;;;;;2.20;1.40;;;23.60;99.90;;;;;;4953997;29;20027;-52
2023/09/20 12:29:30;;;;;;;4.45;1.30;;;23.60;99.90;;;;;;4953300;29;20078;-52
2023/09/20 12:31:56;;;;;;;2.90;1.13;;;23.60;99.90;;;;;;4953966;28;20114;-50
2023/09/20 12:34:21;;;;;;;1.92;1.58;;;23.60;99.90;;;;;;4953811;29;20098;-52
2023/09/20 12:36:48;;;;;;;2.03;1.58;;;23.50;99.90;;;;;;4953109;28;20027;-53
2023/09/20 12:39:14;;;;;;;1.63;1.30;;;23.50;99.90;;;;;;4953056;29;20147;-54
2023/09/20 12:41:42;;;;;;;1.52;1.40;;;23.50;99.90;;;;;;4951725;29;20102;-53
2023/09/20 12:44:08;;;;;;;1.95;1.35;;;23.60;99.90;;;;;;4952591;29;20114;-53
2023/09/20 12:46:36;;;;;;;1.75;1.48;;;23.70;99.90;;;;;;4936644;28;20035;-50
2023/09/20 12:49:02;;;;;;;4.57;1.48;;;23.80;99.90;;;;;;4934151;29;20031;-52
2023/09/20 12:51:30;;;;;;;1.20;1.10;;;23.90;99.90;;;;;;4932346;29;20103;-54
2023/09/20 12:53:55;;;;;;;3.58;1.40;;;23.90;99.90;;;;;;4932065;29;20032;-54
2023/09/20 12:56:21;;;;;;;6.60;1.58;;;24.00;99.90;;;;;;4933233;29;20032;-54
2023/09/20 12:58:47;;;;;;;1.50;1.17;;;24.00;99.90;;;;;;4932066;29;20530;-54
2023/09/20 13:01:13;;;;;;;1.80;1.30;;;24.10;99.90;;;;;;4933196;29;20020;-54
2023/09/20 13:03:43;;;;;;;6.45;1.45;;;24.10;99.90;;;;;;4932390;29;20079;-51
2023/09/20 13:06:11;;;;;;;5.90;1.30;;;24.10;99.90;;;;;;4934293;29;20027;-54
2023/09/20 13:08:38;;;;;;;2.28;1.33;;;24.00;99.90;;;;;;4935171;29;20028;-50
2023/09/20 13:11:05;;;;;;;2.15;1.48;;;24.00;99.90;;;;;;4937566;29;20028;-53
2023/09/20 13:13:31;;;;;;;1.95;1.50;;;24.00;99.90;;;;;;4937210;29;20155;-52
2023/09/20 13:15:57;;;;;;;3.15;1.55;;;24.10;99.90;;;;;;4936492;29;20483;-52
2023/09/20 13:18:23;;;;;;;1.88;1.20;;;24.10;99.90;;;;;;4937826;29;20105;-52
2023/09/20 13:20:48;;;;;;;17.67;11.32;;;24.10;99.90;;;;;;4938250;29;20039;-52
2023/09/20 13:23:14;;;;;;;5.22;2.63;;;24.10;99.90;;;;;;4938076;29;20333;-54
2023/09/20 13:25:41;;;;;;;2.45;2.25;;;24.10;99.90;;;;;;4938052;29;20059;-52